sensor_id;sensor_type;location;lat;lon;timestamp;P1;durP1;ratioP1;P2;durP2;ratioP2
2656;SDS011;1338;48.176;11.792;2022-10-12T00:01:08;31.80;;;25.03;;
2656;SDS011;1338;48.176;11.792;2022-10-12T00:03:36;28.87;;;24.00;;
2656;SDS011;1338;48.176;11.792;2022-10-12T00:06:06;33.07;;;25.10;;
2656;SDS011;1338;48.176;11.792;2022-10-12T00:08:37;29.50;;;26.23;;
2656;SDS011;1338;48.176;11.792;2022-10-12T00:11:06;32.90;;;29.30;;
2656;SDS011;1338;48.176;11.792;2022-10-12T00:13:37;29.03;;;26.20;;
2656;SDS011;1338;48.176;11.792;2022-10-12T00:16:06;28.80;;;25.50;;
2656;SDS011;1338;48.176;11.792;2022-10-12T00:18:37;29.40;;;26.33;;
2656;SDS011;1338;48.176;11.792;2022-10-12T00:21:07;31.37;;;27.03;;
2656;SDS011;1338;48.176;11.792;2022-10-12T00:23:38;34.33;;;27.00;;
2656;SDS011;1338;48.176;11.792;2022-10-12T00:26:08;36.93;;;27.90;;
2656;SDS011;1338;48.176;11.792;2022-10-12T00:28:40;28.07;;;24.87;;
2656;SDS011;1338;48.176;11.792;2022-10-12T00:31:11;31.77;;;25.03;;
2656;SDS011;1338;48.176;11.792;2022-10-12T00:33:41;28.40;;;23.90;;
2656;SDS011;1338;48.176;11.792;2022-10-12T00:36:11;29.13;;;25.77;;
2656;SDS011;1338;48.176;11.792;2022-10-12T00:38:41;33.37;;;26.63;;
2656;SDS011;1338;48.176;11.792;2022-10-12T00:41:10;27.73;;;24.63;;
2656;SDS011;1338;48.176;11.792;2022-10-12T00:43:39;30.20;;;25.93;;
2656;SDS011;1338;48.176;11.792;2022-10-12T00:46:13;29.90;;;25.00;;
2656;SDS011;1338;48.176;11.792;2022-10-12T00:48:47;30.77;;;26.13;;
2656;SDS011;1338;48.176;11.792;2022-10-12T00:51:20;31.80;;;27.60;;
2656;SDS011;1338;48.176;11.792;2022-10-12T00:53:52;33.47;;;26.33;;
2656;SDS011;1338;48.176;11.792;2022-10-12T00:56:24;20.57;;;16.90;;
2656;SDS011;1338;48.176;11.792;2022-10-12T00:58:57;32.90;;;26.80;;
2656;SDS011;1338;48.176;11.792;2022-10-12T01:01:30;29.10;;;24.80;;
2656;SDS011;1338;48.176;11.792;2022-10-12T01:04:02;27.77;;;23.47;;
2656;SDS011;1338;48.176;11.792;2022-10-12T01:06:32;28.77;;;25.30;;
2656;SDS011;1338;48.176;11.792;2022-10-12T01:09:01;28.40;;;23.73;;
2656;SDS011;1338;48.176;11.792;2022-10-12T01:11:30;29.33;;;26.23;;
2656;SDS011;1338;48.176;11.792;2022-10-12T01:13:59;29.60;;;25.47;;
2656;SDS011;1338;48.176;11.792;2022-10-12T01:16:28;30.70;;;25.10;;
2656;SDS011;1338;48.176;11.792;2022-10-12T01:19:09;22.40;;;19.97;;
2656;SDS011;1338;48.176;11.792;2022-10-12T01:21:50;34.60;;;27.20;;
2656;SDS011;1338;48.176;11.792;2022-10-12T01:24:41;30.93;;;26.27;;
2656;SDS011;1338;48.176;11.792;2022-10-12T01:27:32;31.73;;;26.27;;
2656;SDS011;1338;48.176;11.792;2022-10-12T01:30:14;26.93;;;20.80;;
2656;SDS011;1338;48.176;11.792;2022-10-12T01:35:50;38.50;;;29.93;;
2656;SDS011;1338;48.176;11.792;2022-10-12T01:38:26;39.07;;;30.87;;
2656;SDS011;1338;48.176;11.792;2022-10-12T01:41:01;43.60;;;32.20;;
2656;SDS011;1338;48.176;11.792;2022-10-12T01:43:37;44.77;;;31.90;;
2656;SDS011;1338;48.176;11.792;2022-10-12T01:49:07;37.90;;;28.93;;
2656;SDS011;1338;48.176;11.792;2022-10-12T01:51:39;42.30;;;29.57;;
2656;SDS011;1338;48.176;11.792;2022-10-12T01:54:16;31.20;;;25.10;;
2656;SDS011;1338;48.176;11.792;2022-10-12T01:56:52;33.47;;;26.93;;
2656;SDS011;1338;48.176;11.792;2022-10-12T01:59:28;38.30;;;31.00;;
2656;SDS011;1338;48.176;11.792;2022-10-12T02:02:04;39.90;;;32.20;;
2656;SDS011;1338;48.176;11.792;2022-10-12T02:04:42;38.27;;;27.83;;
2656;SDS011;1338;48.176;11.792;2022-10-12T02:07:15;45.20;;;33.10;;
2656;SDS011;1338;48.176;11.792;2022-10-12T02:09:49;40.90;;;30.33;;
2656;SDS011;1338;48.176;11.792;2022-10-12T02:12:21;43.30;;;32.30;;
2656;SDS011;1338;48.176;11.792;2022-10-12T02:14:53;39.87;;;29.87;;
2656;SDS011;1338;48.176;11.792;2022-10-12T02:17:26;42.50;;;31.80;;
2656;SDS011;1338;48.176;11.792;2022-10-12T02:19:59;46.90;;;33.33;;
2656;SDS011;1338;48.176;11.792;2022-10-12T02:22:29;40.70;;;31.43;;
2656;SDS011;1338;48.176;11.792;2022-10-12T02:25:02;37.90;;;29.00;;
2656;SDS011;1338;48.176;11.792;2022-10-12T02:27:33;45.37;;;33.63;;
2656;SDS011;1338;48.176;11.792;2022-10-12T02:30:04;40.93;;;28.27;;
2656;SDS011;1338;48.176;11.792;2022-10-12T02:32:37;45.93;;;31.67;;
2656;SDS011;1338;48.176;11.792;2022-10-12T02:35:12;39.83;;;29.20;;
2656;SDS011;1338;48.176;11.792;2022-10-12T02:37:48;41.83;;;30.90;;
2656;SDS011;1338;48.176;11.792;2022-10-12T02:40:20;39.93;;;28.50;;
2656;SDS011;1338;48.176;11.792;2022-10-12T02:42:56;41.50;;;31.77;;
2656;SDS011;1338;48.176;11.792;2022-10-12T02:45:36;38.83;;;29.90;;
2656;SDS011;1338;48.176;11.792;2022-10-12T02:48:09;41.90;;;32.23;;
2656;SDS011;1338;48.176;11.792;2022-10-12T02:50:41;48.03;;;31.90;;
2656;SDS011;1338;48.176;11.792;2022-10-12T02:53:10;40.20;;;30.00;;
2656;SDS011;1338;48.176;11.792;2022-10-12T02:55:45;45.43;;;32.40;;
2656;SDS011;1338;48.176;11.792;2022-10-12T02:58:14;42.03;;;31.37;;
2656;SDS011;1338;48.176;11.792;2022-10-12T03:00:43;45.60;;;31.20;;
2656;SDS011;1338;48.176;11.792;2022-10-12T03:03:14;42.93;;;31.27;;
2656;SDS011;1338;48.176;11.792;2022-10-12T03:05:42;42.03;;;30.97;;
2656;SDS011;1338;48.176;11.792;2022-10-12T03:08:11;40.57;;;28.50;;
2656;SDS011;1338;48.176;11.792;2022-10-12T03:10:39;45.23;;;33.30;;
2656;SDS011;1338;48.176;11.792;2022-10-12T03:13:08;39.10;;;28.93;;
2656;SDS011;1338;48.176;11.792;2022-10-12T03:15:36;37.50;;;28.47;;
2656;SDS011;1338;48.176;11.792;2022-10-12T03:18:05;38.50;;;29.43;;
2656;SDS011;1338;48.176;11.792;2022-10-12T03:20:34;40.80;;;31.40;;
2656;SDS011;1338;48.176;11.792;2022-10-12T03:23:03;51.17;;;31.60;;
2656;SDS011;1338;48.176;11.792;2022-10-12T03:25:31;42.70;;;28.37;;
2656;SDS011;1338;48.176;11.792;2022-10-12T03:28:00;41.93;;;31.47;;
2656;SDS011;1338;48.176;11.792;2022-10-12T03:30:28;40.90;;;28.80;;
2656;SDS011;1338;48.176;11.792;2022-10-12T03:32:57;38.87;;;26.73;;
2656;SDS011;1338;48.176;11.792;2022-10-12T03:35:26;38.03;;;27.43;;
2656;SDS011;1338;48.176;11.792;2022-10-12T03:37:56;46.20;;;30.20;;
2656;SDS011;1338;48.176;11.792;2022-10-12T03:40:24;34.53;;;26.90;;
2656;SDS011;1338;48.176;11.792;2022-10-12T03:42:53;46.10;;;30.00;;
2656;SDS011;1338;48.176;11.792;2022-10-12T03:45:21;49.70;;;31.93;;
2656;SDS011;1338;48.176;11.792;2022-10-12T03:47:49;44.10;;;30.00;;
2656;SDS011;1338;48.176;11.792;2022-10-12T03:50:17;38.93;;;27.23;;
2656;SDS011;1338;48.176;11.792;2022-10-12T03:52:46;51.70;;;31.10;;
2656;SDS011;1338;48.176;11.792;2022-10-12T03:55:16;39.73;;;28.90;;
2656;SDS011;1338;48.176;11.792;2022-10-12T03:57:44;41.70;;;30.57;;
2656;SDS011;1338;48.176;11.792;2022-10-12T04:00:13;48.60;;;32.90;;
2656;SDS011;1338;48.176;11.792;2022-10-12T04:02:42;47.50;;;32.83;;
2656;SDS011;1338;48.176;11.792;2022-10-12T04:05:10;49.27;;;31.93;;
2656;SDS011;1338;48.176;11.792;2022-10-12T04:07:39;53.53;;;32.93;;
2656;SDS011;1338;48.176;11.792;2022-10-12T04:10:08;50.03;;;32.07;;
2656;SDS011;1338;48.176;11.792;2022-10-12T04:12:38;55.70;;;33.70;;
2656;SDS011;1338;48.176;11.792;2022-10-12T04:15:07;65.67;;;36.23;;
2656;SDS011;1338;48.176;11.792;2022-10-12T04:17:36;60.27;;;33.67;;
2656;SDS011;1338;48.176;11.792;2022-10-12T04:20:05;53.87;;;35.93;;
2656;SDS011;1338;48.176;11.792;2022-10-12T04:22:34;63.50;;;34.40;;
2656;SDS011;1338;48.176;11.792;2022-10-12T04:25:02;54.73;;;35.13;;
2656;SDS011;1338;48.176;11.792;2022-10-12T04:27:32;53.23;;;35.00;;
2656;SDS011;1338;48.176;11.792;2022-10-12T04:30:02;49.67;;;33.80;;
2656;SDS011;1338;48.176;11.792;2022-10-12T04:32:32;62.10;;;35.43;;
2656;SDS011;1338;48.176;11.792;2022-10-12T04:35:00;54.60;;;35.50;;
2656;SDS011;1338;48.176;11.792;2022-10-12T04:37:28;56.73;;;34.00;;
2656;SDS011;1338;48.176;11.792;2022-10-12T04:39:57;69.53;;;37.67;;
2656;SDS011;1338;48.176;11.792;2022-10-12T04:42:26;63.57;;;36.60;;
2656;SDS011;1338;48.176;11.792;2022-10-12T04:44:55;62.57;;;36.97;;
2656;SDS011;1338;48.176;11.792;2022-10-12T04:47:24;64.87;;;39.60;;
2656;SDS011;1338;48.176;11.792;2022-10-12T04:49:53;65.03;;;36.77;;
2656;SDS011;1338;48.176;11.792;2022-10-12T04:52:21;52.97;;;35.27;;
2656;SDS011;1338;48.176;11.792;2022-10-12T04:54:49;59.73;;;36.53;;
2656;SDS011;1338;48.176;11.792;2022-10-12T04:57:18;50.30;;;36.97;;
2656;SDS011;1338;48.176;11.792;2022-10-12T04:59:46;54.97;;;34.97;;
2656;SDS011;1338;48.176;11.792;2022-10-12T05:02:15;51.67;;;35.17;;
2656;SDS011;1338;48.176;11.792;2022-10-12T05:04:45;60.90;;;36.30;;
2656;SDS011;1338;48.176;11.792;2022-10-12T05:07:13;60.63;;;36.43;;
2656;SDS011;1338;48.176;11.792;2022-10-12T05:09:42;43.70;;;30.10;;
2656;SDS011;1338;48.176;11.792;2022-10-12T05:12:10;61.23;;;36.03;;
2656;SDS011;1338;48.176;11.792;2022-10-12T05:14:38;58.53;;;37.57;;
2656;SDS011;1338;48.176;11.792;2022-10-12T05:17:10;57.83;;;32.60;;
2656;SDS011;1338;48.176;11.792;2022-10-12T05:19:38;63.97;;;36.07;;
2656;SDS011;1338;48.176;11.792;2022-10-12T05:22:08;59.13;;;38.07;;
2656;SDS011;1338;48.176;11.792;2022-10-12T05:24:36;58.67;;;37.33;;
2656;SDS011;1338;48.176;11.792;2022-10-12T05:27:05;67.97;;;39.30;;
2656;SDS011;1338;48.176;11.792;2022-10-12T05:29:33;63.40;;;38.07;;
2656;SDS011;1338;48.176;11.792;2022-10-12T05:32:01;67.13;;;37.57;;
2656;SDS011;1338;48.176;11.792;2022-10-12T05:34:30;57.10;;;37.40;;
2656;SDS011;1338;48.176;11.792;2022-10-12T05:36:59;63.70;;;37.83;;
2656;SDS011;1338;48.176;11.792;2022-10-12T05:39:29;66.60;;;39.97;;
2656;SDS011;1338;48.176;11.792;2022-10-12T05:41:58;72.43;;;38.37;;
2656;SDS011;1338;48.176;11.792;2022-10-12T05:44:26;67.57;;;37.90;;
2656;SDS011;1338;48.176;11.792;2022-10-12T05:46:54;81.63;;;41.10;;
2656;SDS011;1338;48.176;11.792;2022-10-12T05:49:23;75.53;;;40.17;;
2656;SDS011;1338;48.176;11.792;2022-10-12T05:51:52;76.93;;;40.10;;
2656;SDS011;1338;48.176;11.792;2022-10-12T05:54:20;66.97;;;38.77;;
2656;SDS011;1338;48.176;11.792;2022-10-12T05:56:50;89.27;;;42.57;;
2656;SDS011;1338;48.176;11.792;2022-10-12T05:59:18;86.03;;;40.63;;
2656;SDS011;1338;48.176;11.792;2022-10-12T06:01:47;81.07;;;43.37;;
2656;SDS011;1338;48.176;11.792;2022-10-12T06:04:15;70.60;;;42.10;;
2656;SDS011;1338;48.176;11.792;2022-10-12T06:06:44;62.20;;;40.57;;
2656;SDS011;1338;48.176;11.792;2022-10-12T06:09:12;78.47;;;42.43;;
2656;SDS011;1338;48.176;11.792;2022-10-12T06:11:42;72.43;;;40.80;;
2656;SDS011;1338;48.176;11.792;2022-10-12T06:14:11;69.40;;;40.47;;
2656;SDS011;1338;48.176;11.792;2022-10-12T06:16:40;72.27;;;39.70;;
2656;SDS011;1338;48.176;11.792;2022-10-12T06:19:09;70.63;;;42.00;;
2656;SDS011;1338;48.176;11.792;2022-10-12T06:21:39;69.07;;;42.10;;
2656;SDS011;1338;48.176;11.792;2022-10-12T06:24:08;73.77;;;43.03;;
2656;SDS011;1338;48.176;11.792;2022-10-12T06:26:36;69.50;;;40.00;;
2656;SDS011;1338;48.176;11.792;2022-10-12T06:29:05;76.77;;;42.03;;
2656;SDS011;1338;48.176;11.792;2022-10-12T06:31:34;63.13;;;39.17;;
2656;SDS011;1338;48.176;11.792;2022-10-12T06:34:04;63.63;;;39.83;;
2656;SDS011;1338;48.176;11.792;2022-10-12T06:36:32;66.97;;;40.67;;
2656;SDS011;1338;48.176;11.792;2022-10-12T06:39:00;59.00;;;37.77;;
2656;SDS011;1338;48.176;11.792;2022-10-12T06:41:29;63.93;;;38.77;;
2656;SDS011;1338;48.176;11.792;2022-10-12T06:43:57;57.40;;;39.20;;
2656;SDS011;1338;48.176;11.792;2022-10-12T06:46:26;55.87;;;37.93;;
2656;SDS011;1338;48.176;11.792;2022-10-12T06:48:56;56.80;;;35.30;;
2656;SDS011;1338;48.176;11.792;2022-10-12T06:51:24;49.87;;;30.73;;
2656;SDS011;1338;48.176;11.792;2022-10-12T06:53:53;53.90;;;37.20;;
2656;SDS011;1338;48.176;11.792;2022-10-12T06:56:22;57.27;;;37.00;;
2656;SDS011;1338;48.176;11.792;2022-10-12T06:58:54;56.53;;;34.93;;
2656;SDS011;1338;48.176;11.792;2022-10-12T07:01:23;57.77;;;34.10;;
2656;SDS011;1338;48.176;11.792;2022-10-12T07:03:51;45.70;;;31.57;;
2656;SDS011;1338;48.176;11.792;2022-10-12T07:06:27;40.73;;;28.80;;
2656;SDS011;1338;48.176;11.792;2022-10-12T07:08:55;48.03;;;31.73;;
2656;SDS011;1338;48.176;11.792;2022-10-12T07:11:24;50.57;;;33.37;;
2656;SDS011;1338;48.176;11.792;2022-10-12T07:13:52;48.83;;;31.90;;
2656;SDS011;1338;48.176;11.792;2022-10-12T07:16:21;52.50;;;33.50;;
2656;SDS011;1338;48.176;11.792;2022-10-12T07:18:50;61.57;;;35.83;;
2656;SDS011;1338;48.176;11.792;2022-10-12T07:21:23;48.67;;;33.20;;
2656;SDS011;1338;48.176;11.792;2022-10-12T07:23:54;51.47;;;31.97;;
2656;SDS011;1338;48.176;11.792;2022-10-12T07:26:27;34.07;;;24.17;;
2656;SDS011;1338;48.176;11.792;2022-10-12T07:28:58;44.20;;;27.80;;
2656;SDS011;1338;48.176;11.792;2022-10-12T07:31:30;43.77;;;29.07;;
2656;SDS011;1338;48.176;11.792;2022-10-12T07:33:58;49.70;;;30.23;;
2656;SDS011;1338;48.176;11.792;2022-10-12T07:36:26;31.20;;;22.87;;
2656;SDS011;1338;48.176;11.792;2022-10-12T07:39:17;38.97;;;26.40;;
2656;SDS011;1338;48.176;11.792;2022-10-12T07:41:45;44.53;;;27.27;;
2656;SDS011;1338;48.176;11.792;2022-10-12T07:44:14;36.43;;;26.53;;
2656;SDS011;1338;48.176;11.792;2022-10-12T07:46:43;36.20;;;26.50;;
2656;SDS011;1338;48.176;11.792;2022-10-12T07:49:12;40.60;;;26.53;;
2656;SDS011;1338;48.176;11.792;2022-10-12T07:51:41;32.90;;;24.30;;
2656;SDS011;1338;48.176;11.792;2022-10-12T07:54:12;41.57;;;28.10;;
2656;SDS011;1338;48.176;11.792;2022-10-12T07:56:48;37.43;;;26.37;;
2656;SDS011;1338;48.176;11.792;2022-10-12T07:59:17;39.47;;;27.40;;
2656;SDS011;1338;48.176;11.792;2022-10-12T08:01:46;40.10;;;25.70;;
2656;SDS011;1338;48.176;11.792;2022-10-12T08:04:14;40.57;;;27.00;;
2656;SDS011;1338;48.176;11.792;2022-10-12T08:06:44;40.00;;;25.90;;
2656;SDS011;1338;48.176;11.792;2022-10-12T08:09:12;41.67;;;26.40;;
2656;SDS011;1338;48.176;11.792;2022-10-12T08:11:41;35.10;;;25.77;;
2656;SDS011;1338;48.176;11.792;2022-10-12T08:14:12;38.10;;;25.80;;
2656;SDS011;1338;48.176;11.792;2022-10-12T08:16:43;36.13;;;24.67;;
2656;SDS011;1338;48.176;11.792;2022-10-12T08:19:12;33.23;;;24.70;;
2656;SDS011;1338;48.176;11.792;2022-10-12T08:21:41;35.73;;;24.83;;
2656;SDS011;1338;48.176;11.792;2022-10-12T08:24:10;35.47;;;23.70;;
2656;SDS011;1338;48.176;11.792;2022-10-12T08:26:38;40.63;;;25.30;;
2656;SDS011;1338;48.176;11.792;2022-10-12T08:29:08;36.33;;;24.90;;
2656;SDS011;1338;48.176;11.792;2022-10-12T08:31:39;45.10;;;27.63;;
2656;SDS011;1338;48.176;11.792;2022-10-12T08:34:07;37.97;;;26.90;;
2656;SDS011;1338;48.176;11.792;2022-10-12T08:36:36;39.33;;;26.00;;
2656;SDS011;1338;48.176;11.792;2022-10-12T08:39:05;38.30;;;27.20;;
2656;SDS011;1338;48.176;11.792;2022-10-12T08:41:46;41.70;;;28.37;;
2656;SDS011;1338;48.176;11.792;2022-10-12T08:44:30;45.43;;;28.37;;
2656;SDS011;1338;48.176;11.792;2022-10-12T08:47:16;45.80;;;27.33;;
2656;SDS011;1338;48.176;11.792;2022-10-12T08:49:47;37.23;;;26.43;;
2656;SDS011;1338;48.176;11.792;2022-10-12T08:52:21;31.83;;;21.97;;
2656;SDS011;1338;48.176;11.792;2022-10-12T08:54:56;32.37;;;25.30;;
2656;SDS011;1338;48.176;11.792;2022-10-12T08:57:28;34.97;;;24.17;;
2656;SDS011;1338;48.176;11.792;2022-10-12T08:59:57;35.30;;;25.53;;
2656;SDS011;1338;48.176;11.792;2022-10-12T09:02:35;38.60;;;25.10;;
2656;SDS011;1338;48.176;11.792;2022-10-12T09:05:13;37.57;;;26.27;;
2656;SDS011;1338;48.176;11.792;2022-10-12T09:07:47;26.47;;;19.57;;
2656;SDS011;1338;48.176;11.792;2022-10-12T09:10:25;39.17;;;25.23;;
2656;SDS011;1338;48.176;11.792;2022-10-12T09:13:01;35.77;;;24.50;;
2656;SDS011;1338;48.176;11.792;2022-10-12T09:15:37;33.30;;;22.60;;
2656;SDS011;1338;48.176;11.792;2022-10-12T09:18:19;31.40;;;23.60;;
2656;SDS011;1338;48.176;11.792;2022-10-12T09:21:06;19.60;;;15.90;;
2656;SDS011;1338;48.176;11.792;2022-10-12T09:23:38;32.50;;;20.57;;
2656;SDS011;1338;48.176;11.792;2022-10-12T09:26:12;34.07;;;21.80;;
2656;SDS011;1338;48.176;11.792;2022-10-12T09:28:43;33.60;;;23.60;;
2656;SDS011;1338;48.176;11.792;2022-10-12T09:31:20;26.90;;;20.27;;
2656;SDS011;1338;48.176;11.792;2022-10-12T09:33:59;28.70;;;20.90;;
2656;SDS011;1338;48.176;11.792;2022-10-12T09:36:31;24.47;;;18.70;;
2656;SDS011;1338;48.176;11.792;2022-10-12T09:39:03;35.27;;;23.10;;
2656;SDS011;1338;48.176;11.792;2022-10-12T09:41:34;30.67;;;22.53;;
2656;SDS011;1338;48.176;11.792;2022-10-12T09:44:06;31.50;;;23.00;;
2656;SDS011;1338;48.176;11.792;2022-10-12T09:46:43;24.27;;;18.07;;
2656;SDS011;1338;48.176;11.792;2022-10-12T09:49:17;26.93;;;19.07;;
2656;SDS011;1338;48.176;11.792;2022-10-12T09:51:46;29.20;;;20.30;;
2656;SDS011;1338;48.176;11.792;2022-10-12T09:54:25;31.83;;;22.40;;
2656;SDS011;1338;48.176;11.792;2022-10-12T09:56:54;31.17;;;22.50;;
2656;SDS011;1338;48.176;11.792;2022-10-12T09:59:25;29.67;;;19.70;;
2656;SDS011;1338;48.176;11.792;2022-10-12T10:01:56;29.37;;;21.30;;
2656;SDS011;1338;48.176;11.792;2022-10-12T10:04:40;25.90;;;21.17;;
2656;SDS011;1338;48.176;11.792;2022-10-12T10:07:18;25.90;;;21.47;;
2656;SDS011;1338;48.176;11.792;2022-10-12T10:10:04;28.60;;;21.00;;
2656;SDS011;1338;48.176;11.792;2022-10-12T10:12:42;28.10;;;20.67;;
2656;SDS011;1338;48.176;11.792;2022-10-12T10:15:21;24.87;;;19.90;;
2656;SDS011;1338;48.176;11.792;2022-10-12T10:17:52;27.73;;;21.20;;
2656;SDS011;1338;48.176;11.792;2022-10-12T10:20:28;28.50;;;20.23;;
2656;SDS011;1338;48.176;11.792;2022-10-12T10:22:58;17.60;;;13.50;;
2656;SDS011;1338;48.176;11.792;2022-10-12T10:25:28;20.87;;;17.23;;
2656;SDS011;1338;48.176;11.792;2022-10-12T10:30:56;25.90;;;17.90;;
2656;SDS011;1338;48.176;11.792;2022-10-12T10:33:28;23.30;;;17.43;;
2656;SDS011;1338;48.176;11.792;2022-10-12T10:36:02;19.43;;;15.93;;
2656;SDS011;1338;48.176;11.792;2022-10-12T10:38:44;21.47;;;16.17;;
2656;SDS011;1338;48.176;11.792;2022-10-12T10:41:22;24.00;;;20.60;;
2656;SDS011;1338;48.176;11.792;2022-10-12T10:43:54;18.43;;;15.67;;
2656;SDS011;1338;48.176;11.792;2022-10-12T10:46:24;19.33;;;16.83;;
2656;SDS011;1338;48.176;11.792;2022-10-12T10:48:55;25.40;;;20.00;;
2656;SDS011;1338;48.176;11.792;2022-10-12T10:51:42;26.60;;;19.70;;
2656;SDS011;1338;48.176;11.792;2022-10-12T10:54:13;23.50;;;19.20;;
2656;SDS011;1338;48.176;11.792;2022-10-12T10:56:43;25.17;;;19.27;;
2656;SDS011;1338;48.176;11.792;2022-10-12T10:59:18;19.10;;;15.93;;
2656;SDS011;1338;48.176;11.792;2022-10-12T11:01:55;17.70;;;14.77;;
2656;SDS011;1338;48.176;11.792;2022-10-12T11:04:26;28.50;;;20.40;;
2656;SDS011;1338;48.176;11.792;2022-10-12T11:07:02;29.00;;;19.03;;
2656;SDS011;1338;48.176;11.792;2022-10-12T11:09:37;27.00;;;18.83;;
2656;SDS011;1338;48.176;11.792;2022-10-12T11:12:10;30.00;;;20.40;;
2656;SDS011;1338;48.176;11.792;2022-10-12T11:14:44;23.10;;;19.97;;
2656;SDS011;1338;48.176;11.792;2022-10-12T11:17:16;27.17;;;21.00;;
2656;SDS011;1338;48.176;11.792;2022-10-12T11:19:50;27.07;;;19.40;;
2656;SDS011;1338;48.176;11.792;2022-10-12T11:22:27;23.13;;;20.67;;
2656;SDS011;1338;48.176;11.792;2022-10-12T11:25:05;24.67;;;20.80;;
2656;SDS011;1338;48.176;11.792;2022-10-12T11:27:36;27.13;;;21.90;;
2656;SDS011;1338;48.176;11.792;2022-10-12T11:30:11;26.00;;;19.53;;
2656;SDS011;1338;48.176;11.792;2022-10-12T11:32:42;23.73;;;19.50;;
2656;SDS011;1338;48.176;11.792;2022-10-12T11:35:13;25.47;;;18.83;;
2656;SDS011;1338;48.176;11.792;2022-10-12T11:37:48;16.33;;;14.60;;
2656;SDS011;1338;48.176;11.792;2022-10-12T11:40:22;22.23;;;19.43;;
2656;SDS011;1338;48.176;11.792;2022-10-12T11:43:14;17.20;;;14.67;;
2656;SDS011;1338;48.176;11.792;2022-10-12T11:45:48;22.83;;;19.20;;
2656;SDS011;1338;48.176;11.792;2022-10-12T11:48:21;21.60;;;17.67;;
2656;SDS011;1338;48.176;11.792;2022-10-12T11:50:53;18.43;;;16.00;;
2656;SDS011;1338;48.176;11.792;2022-10-12T11:53:33;20.70;;;16.40;;
2656;SDS011;1338;48.176;11.792;2022-10-12T11:56:09;18.90;;;16.50;;
2656;SDS011;1338;48.176;11.792;2022-10-12T11:58:46;22.50;;;18.63;;
2656;SDS011;1338;48.176;11.792;2022-10-12T12:01:38;28.53;;;19.10;;
2656;SDS011;1338;48.176;11.792;2022-10-12T12:04:23;15.60;;;13.97;;
2656;SDS011;1338;48.176;11.792;2022-10-12T12:13:23;21.47;;;17.20;;
2656;SDS011;1338;48.176;11.792;2022-10-12T12:19:08;25.67;;;19.57;;
2656;SDS011;1338;48.176;11.792;2022-10-12T12:24:40;31.13;;;19.73;;
2656;SDS011;1338;48.176;11.792;2022-10-12T12:27:22;25.30;;;18.47;;
2656;SDS011;1338;48.176;11.792;2022-10-12T12:29:56;19.83;;;15.70;;
2656;SDS011;1338;48.176;11.792;2022-10-12T12:32:25;22.77;;;16.90;;
2656;SDS011;1338;48.176;11.792;2022-10-12T12:35:15;29.97;;;20.03;;
2656;SDS011;1338;48.176;11.792;2022-10-12T12:37:58;26.70;;;19.27;;
2656;SDS011;1338;48.176;11.792;2022-10-12T12:43:37;22.33;;;18.10;;
2656;SDS011;1338;48.176;11.792;2022-10-12T12:49:56;20.53;;;16.73;;
2656;SDS011;1338;48.176;11.792;2022-10-12T12:52:28;22.07;;;16.73;;
2656;SDS011;1338;48.176;11.792;2022-10-12T12:55:06;18.47;;;15.00;;
2656;SDS011;1338;48.176;11.792;2022-10-12T13:01:12;23.27;;;19.10;;
2656;SDS011;1338;48.176;11.792;2022-10-12T13:04:00;26.47;;;19.70;;
2656;SDS011;1338;48.176;11.792;2022-10-12T13:06:52;26.37;;;19.50;;
2656;SDS011;1338;48.176;11.792;2022-10-12T13:10:01;24.33;;;18.20;;
2656;SDS011;1338;48.176;11.792;2022-10-12T13:12:55;17.17;;;15.27;;
2656;SDS011;1338;48.176;11.792;2022-10-12T13:15:36;19.80;;;16.50;;
2656;SDS011;1338;48.176;11.792;2022-10-12T13:18:27;20.03;;;16.90;;
2656;SDS011;1338;48.176;11.792;2022-10-12T13:21:17;19.57;;;15.77;;
2656;SDS011;1338;48.176;11.792;2022-10-12T13:23:50;25.13;;;17.93;;
2656;SDS011;1338;48.176;11.792;2022-10-12T13:26:25;27.93;;;19.50;;
2656;SDS011;1338;48.176;11.792;2022-10-12T13:28:54;26.13;;;19.03;;
2656;SDS011;1338;48.176;11.792;2022-10-12T13:31:25;18.50;;;14.80;;
2656;SDS011;1338;48.176;11.792;2022-10-12T13:34:02;27.10;;;19.70;;
2656;SDS011;1338;48.176;11.792;2022-10-12T13:36:45;25.37;;;18.90;;
2656;SDS011;1338;48.176;11.792;2022-10-12T13:39:22;18.07;;;15.07;;
2656;SDS011;1338;48.176;11.792;2022-10-12T13:41:52;20.83;;;17.90;;
2656;SDS011;1338;48.176;11.792;2022-10-12T13:44:23;18.97;;;16.83;;
2656;SDS011;1338;48.176;11.792;2022-10-12T13:46:54;22.93;;;19.23;;
2656;SDS011;1338;48.176;11.792;2022-10-12T13:49:27;20.47;;;15.47;;
2656;SDS011;1338;48.176;11.792;2022-10-12T13:51:58;19.07;;;14.40;;
2656;SDS011;1338;48.176;11.792;2022-10-12T13:54:33;20.50;;;16.30;;
2656;SDS011;1338;48.176;11.792;2022-10-12T13:57:05;22.87;;;16.60;;
2656;SDS011;1338;48.176;11.792;2022-10-12T13:59:42;22.60;;;16.30;;
2656;SDS011;1338;48.176;11.792;2022-10-12T14:02:16;22.33;;;14.87;;
2656;SDS011;1338;48.176;11.792;2022-10-12T14:04:49;24.33;;;19.83;;
2656;SDS011;1338;48.176;11.792;2022-10-12T14:07:21;16.90;;;14.27;;
2656;SDS011;1338;48.176;11.792;2022-10-12T14:09:53;20.73;;;16.50;;
2656;SDS011;1338;48.176;11.792;2022-10-12T14:12:23;22.60;;;16.93;;
2656;SDS011;1338;48.176;11.792;2022-10-12T14:14:55;19.30;;;15.40;;
2656;SDS011;1338;48.176;11.792;2022-10-12T14:17:24;24.67;;;16.60;;
2656;SDS011;1338;48.176;11.792;2022-10-12T14:19:54;21.00;;;18.43;;
2656;SDS011;1338;48.176;11.792;2022-10-12T14:22:43;23.73;;;18.73;;
2656;SDS011;1338;48.176;11.792;2022-10-12T14:25:15;24.90;;;19.17;;
2656;SDS011;1338;48.176;11.792;2022-10-12T14:27:51;26.83;;;19.93;;
2656;SDS011;1338;48.176;11.792;2022-10-12T14:30:22;25.20;;;19.60;;
2656;SDS011;1338;48.176;11.792;2022-10-12T14:32:53;23.43;;;17.77;;
2656;SDS011;1338;48.176;11.792;2022-10-12T14:35:27;19.07;;;16.07;;
2656;SDS011;1338;48.176;11.792;2022-10-12T14:37:56;22.97;;;18.03;;
2656;SDS011;1338;48.176;11.792;2022-10-12T14:40:26;22.17;;;18.37;;
2656;SDS011;1338;48.176;11.792;2022-10-12T14:43:00;21.13;;;17.47;;
2656;SDS011;1338;48.176;11.792;2022-10-12T14:45:33;22.67;;;18.80;;
2656;SDS011;1338;48.176;11.792;2022-10-12T14:48:02;23.90;;;18.67;;
2656;SDS011;1338;48.176;11.792;2022-10-12T14:50:33;17.97;;;14.90;;
2656;SDS011;1338;48.176;11.792;2022-10-12T14:53:02;22.00;;;19.27;;
2656;SDS011;1338;48.176;11.792;2022-10-12T14:55:36;24.97;;;18.60;;
2656;SDS011;1338;48.176;11.792;2022-10-12T14:58:04;24.57;;;17.60;;
2656;SDS011;1338;48.176;11.792;2022-10-12T15:00:34;24.73;;;20.40;;
2656;SDS011;1338;48.176;11.792;2022-10-12T15:03:04;23.30;;;18.87;;
2656;SDS011;1338;48.176;11.792;2022-10-12T15:05:34;23.67;;;19.10;;
2656;SDS011;1338;48.176;11.792;2022-10-12T15:08:03;20.27;;;16.30;;
2656;SDS011;1338;48.176;11.792;2022-10-12T15:10:34;17.83;;;15.93;;
2656;SDS011;1338;48.176;11.792;2022-10-12T15:13:03;21.77;;;18.60;;
2656;SDS011;1338;48.176;11.792;2022-10-12T15:15:33;24.20;;;19.10;;
2656;SDS011;1338;48.176;11.792;2022-10-12T15:18:05;20.30;;;15.20;;
2656;SDS011;1338;48.176;11.792;2022-10-12T15:20:35;18.17;;;15.93;;
2656;SDS011;1338;48.176;11.792;2022-10-12T15:23:04;20.97;;;16.27;;
2656;SDS011;1338;48.176;11.792;2022-10-12T15:25:39;23.63;;;18.33;;
2656;SDS011;1338;48.176;11.792;2022-10-12T15:28:11;15.53;;;14.00;;
2656;SDS011;1338;48.176;11.792;2022-10-12T15:30:41;18.67;;;16.73;;
2656;SDS011;1338;48.176;11.792;2022-10-12T15:33:30;20.30;;;16.43;;
2656;SDS011;1338;48.176;11.792;2022-10-12T15:36:00;18.07;;;14.90;;